Wilkes-Barre, PA (18702)

8:35 AM EST on February 27, 2017 (GMT -0500)
Forest Park | | Change Station

Elev 1850 ft 41.19 °N, 75.78 °W | Updated 35 seconds ago

Mostly Cloudy
Mostly Cloudy
34.7 °F
Feels Like 35 °F
N
0.0
Wind Variable Wind from South

Today
High -- | Low -- °F
--% Chance of Precip.
Yesterday
High -- | Low -- °F
Precip. -- in
Pressure 30.35 in
Visibility 9.0 miles
Clouds Clear
Windchill 35 °F
Dew Point 21 °F
Humidity 56%
Rainfall 0.00 in
Snow Depth Not available.
6:40 AM 5:51 PM
New Moon, 1% visible
METAR KAVP 271254Z 22005KT 9SM CLR 01/M08 A3033 RMK AO2 SLP278 T00061078
Pressure 30.35 in
Visibility 9.0 miles
Clouds Clear
Windchill 35 °F
Dew Point 21 °F
Humidity 56%
Rainfall 0.00 in
Snow Depth Not available.
6:40 AM 5:51 PM
New Moon, 1% visible
METAR KAVP 271254Z 22005KT 9SM CLR 01/M08 A3033 RMK AO2 SLP278 T00061078

Get Your Daily Forecast Email!

Thanks for signing up!

Be on the lookout for a verification email in your inbox.

You'll start receiving the daily forecast at 8 AM.

×

10-Day Weather Forecast

Almanac

Astronomy

Feb. 27, 2017 Rise Set
Actual Time
Civil Twilight
Nautical Twilight
Astronomical Twilight
Moon
Length of Visible Light
Length of Day
Tomorrow will be .
, % of the Moon is Illuminated

Today's Extremes

State Highs State Lows

Community

WunderPhotos

Upload Photos

1,962,540 photos uploaded!

WunderBlog® & News

Nearby

Air Quality

  Air Quality AQ Index Pollutant
Not available.

Snow Depth

Station Depth Elevation

Earthquake Activity

City Distance Mag. Time & Date
Minimum magnitude displayed is 2.5.

Coastal Water Temperatures

Place Temperature

Stations

Nearby Weather Stations

Station Location Temp. Windchill Dew Point Humidity Wind Precip. Elev Updated Type
                   

Watches & Warnings

There are currently no watches in effect.